createdAt,value
2018-03-20T00:00:43.293Z,0.00
2018-03-20T00:01:43.210Z,0.00
2018-03-20T00:02:43.123Z,0.00
2018-03-20T00:03:43.030Z,0.00
2018-03-20T00:04:42.943Z,0.00
2018-03-20T00:05:42.860Z,0.00
2018-03-20T00:06:42.769Z,0.00
2018-03-20T00:07:42.681Z,0.00
2018-03-20T00:08:42.610Z,0.00
2018-03-20T00:09:42.519Z,0.00
2018-03-20T00:10:42.431Z,0.00
2018-03-20T00:11:42.345Z,0.00
2018-03-20T00:12:42.257Z,0.00
2018-03-20T00:13:42.170Z,0.00
2018-03-20T00:14:42.088Z,0.00
2018-03-20T00:15:41.995Z,0.00
2018-03-20T00:16:41.907Z,0.00
2018-03-20T00:17:41.824Z,0.00
2018-03-20T00:18:41.732Z,0.00
2018-03-20T00:19:41.646Z,0.00
2018-03-20T00:20:41.575Z,0.00
2018-03-20T00:21:41.483Z,0.00
2018-03-20T00:22:41.396Z,0.00
2018-03-20T00:23:41.311Z,0.00
2018-03-20T00:24:41.225Z,0.00
2018-03-20T00:25:41.140Z,0.00
2018-03-20T00:26:41.046Z,0.00
2018-03-20T00:27:40.963Z,0.00
2018-03-20T00:28:40.880Z,0.00
2018-03-20T00:29:40.784Z,0.00
2018-03-20T00:30:40.697Z,0.00
2018-03-20T00:31:40.610Z,0.00
2018-03-20T00:32:40.523Z,0.00
2018-03-20T00:33:40.436Z,0.00
2018-03-20T00:34:40.363Z,0.00
2018-03-20T00:35:40.279Z,0.00
2018-03-20T00:36:40.185Z,0.00
2018-03-20T00:37:40.097Z,0.00
2018-03-20T00:38:40.009Z,0.00
2018-03-20T00:39:39.925Z,0.00
2018-03-20T00:40:39.835Z,0.00
2018-03-20T00:41:39.751Z,0.00
2018-03-20T00:42:39.664Z,0.00
2018-03-20T00:43:39.576Z,0.00
2018-03-20T00:44:39.486Z,0.00
2018-03-20T00:45:39.399Z,0.00
2018-03-20T00:46:39.314Z,0.00
2018-03-20T00:47:39.226Z,0.00
2018-03-20T00:48:39.137Z,0.00
2018-03-20T00:49:39.063Z,0.00
2018-03-20T00:50:38.978Z,0.00
2018-03-20T00:51:38.902Z,0.00
2018-03-20T00:52:38.801Z,0.00
2018-03-20T00:53:38.712Z,0.00
2018-03-20T00:54:38.632Z,0.00
2018-03-20T00:55:38.536Z,0.00
2018-03-20T00:56:38.454Z,0.00
2018-03-20T00:57:38.361Z,0.00
2018-03-20T00:58:38.274Z,0.00
2018-03-20T00:59:38.204Z,0.00
2018-03-20T01:00:38.105Z,0.00
2018-03-20T01:01:38.017Z,0.00
2018-03-20T01:02:37.932Z,0.00
2018-03-20T01:03:37.842Z,0.00
2018-03-20T01:04:37.754Z,0.00
2018-03-20T01:05:37.667Z,0.00
2018-03-20T01:06:37.585Z,0.00
2018-03-20T01:07:37.500Z,0.00
2018-03-20T01:08:37.416Z,0.00
2018-03-20T01:09:37.326Z,0.00
2018-03-20T01:10:37.242Z,0.00
2018-03-20T01:11:37.151Z,0.00
2018-03-20T01:12:37.066Z,0.00
2018-03-20T01:13:36.981Z,0.00
2018-03-20T01:14:36.893Z,0.00
2018-03-20T01:15:36.802Z,0.00
2018-03-20T01:16:36.714Z,0.00
2018-03-20T01:17:36.630Z,0.00
2018-03-20T01:18:36.551Z,0.00
2018-03-20T01:19:36.454Z,0.00
2018-03-20T01:20:36.364Z,0.00
2018-03-20T01:21:36.278Z,0.00
2018-03-20T01:22:36.190Z,0.00
2018-03-20T01:23:36.102Z,0.00
2018-03-20T01:24:36.015Z,0.00
2018-03-20T01:25:35.934Z,0.00
2018-03-20T01:26:35.848Z,0.00
2018-03-20T01:27:35.757Z,0.00
2018-03-20T01:28:35.678Z,0.00
2018-03-20T01:29:35.591Z,0.00
2018-03-20T01:30:35.503Z,0.00
2018-03-20T01:31:35.418Z,0.00
2018-03-20T01:32:35.332Z,0.00
2018-03-20T01:33:35.241Z,0.00
2018-03-20T01:34:35.156Z,0.00
2018-03-20T01:35:35.067Z,0.00
2018-03-20T01:36:34.983Z,0.00
2018-03-20T01:37:34.895Z,0.00
2018-03-20T01:38:34.807Z,0.00
2018-03-20T01:39:34.719Z,0.00
2018-03-20T01:40:34.629Z,0.00
2018-03-20T01:41:34.546Z,0.00
2018-03-20T01:42:34.454Z,0.00
2018-03-20T01:43:34.370Z,0.00
2018-03-20T01:44:34.284Z,0.00
2018-03-20T01:45:34.193Z,0.00
2018-03-20T01:46:34.117Z,0.00
2018-03-20T01:47:34.018Z,0.00
2018-03-20T01:48:33.930Z,0.00
2018-03-20T01:49:33.847Z,0.00
2018-03-20T01:50:33.756Z,0.00
2018-03-20T01:51:33.667Z,0.00
2018-03-20T01:52:33.582Z,0.00
2018-03-20T01:53:33.499Z,0.00
2018-03-20T01:54:33.419Z,0.00
2018-03-20T01:55:33.332Z,0.00
2018-03-20T01:56:33.260Z,0.00
2018-03-20T01:57:33.156Z,0.00
2018-03-20T01:58:33.081Z,0.00
2018-03-20T01:59:32.981Z,0.00
2018-03-20T02:00:32.897Z,0.00
2018-03-20T02:01:32.810Z,0.00
2018-03-20T02:02:32.723Z,0.00
2018-03-20T02:03:32.635Z,0.00
2018-03-20T02:04:32.556Z,0.00
2018-03-20T02:05:32.456Z,0.00
2018-03-20T02:06:32.373Z,0.00
2018-03-20T02:07:32.283Z,0.00
2018-03-20T02:08:32.195Z,0.00
2018-03-20T02:09:32.110Z,0.00
2018-03-20T02:10:32.020Z,0.00
2018-03-20T02:11:31.933Z,0.00
2018-03-20T02:12:31.861Z,0.00
2018-03-20T02:13:31.763Z,0.00
2018-03-20T02:14:31.670Z,0.00
2018-03-20T02:15:31.583Z,0.00
2018-03-20T02:16:31.496Z,0.00
2018-03-20T02:17:31.415Z,0.00
2018-03-20T02:18:31.321Z,0.00
2018-03-20T02:19:31.235Z,0.00
2018-03-20T02:20:31.146Z,0.00
2018-03-20T02:21:31.061Z,0.00
2018-03-20T02:22:30.975Z,0.00
2018-03-20T02:23:30.886Z,0.00
2018-03-20T02:24:30.802Z,0.00
2018-03-20T02:25:30.722Z,0.00
2018-03-20T02:26:30.641Z,0.00
2018-03-20T02:27:30.547Z,0.00
2018-03-20T02:28:30.471Z,0.00
2018-03-20T02:29:30.373Z,0.00
2018-03-20T02:30:30.286Z,0.00
2018-03-20T02:31:30.198Z,0.00
2018-03-20T02:32:30.113Z,0.00
2018-03-20T02:33:30.034Z,0.00
2018-03-20T02:34:29.940Z,0.00
2018-03-20T02:35:29.848Z,0.00
2018-03-20T02:36:29.764Z,0.00
2018-03-20T02:37:29.674Z,0.00
2018-03-20T02:38:29.587Z,0.00
2018-03-20T02:39:29.498Z,0.00
2018-03-20T02:40:29.419Z,0.00
2018-03-20T02:41:29.330Z,0.00
2018-03-20T02:42:29.247Z,0.00
2018-03-20T02:43:29.148Z,0.00
2018-03-20T02:44:29.068Z,0.00
2018-03-20T02:45:28.974Z,0.00
2018-03-20T02:46:28.887Z,0.00
2018-03-20T02:47:28.799Z,0.00
2018-03-20T02:48:28.714Z,0.00
2018-03-20T02:49:28.630Z,0.00
2018-03-20T02:50:28.539Z,0.00
2018-03-20T02:51:28.449Z,0.00
2018-03-20T02:52:28.363Z,0.00
2018-03-20T02:53:28.278Z,0.00
2018-03-20T02:54:28.189Z,0.00
2018-03-20T02:55:28.101Z,0.00
2018-03-20T02:56:28.016Z,0.00
2018-03-20T02:57:27.926Z,0.00
2018-03-20T02:58:27.850Z,0.00
2018-03-20T02:59:27.751Z,0.00
2018-03-20T03:00:27.667Z,0.00
2018-03-20T03:01:27.578Z,0.00
2018-03-20T03:02:27.489Z,0.00
2018-03-20T03:03:27.401Z,0.00
2018-03-20T03:04:27.319Z,0.00
2018-03-20T03:05:27.240Z,0.00
2018-03-20T03:06:27.155Z,0.00
2018-03-20T03:07:27.052Z,0.00
2018-03-20T03:08:26.977Z,0.00
2018-03-20T03:09:26.893Z,0.00
2018-03-20T03:10:26.802Z,0.00
2018-03-20T03:11:26.717Z,0.00
2018-03-20T03:12:26.629Z,0.00
2018-03-20T03:13:26.540Z,0.00
2018-03-20T03:14:26.452Z,0.00
2018-03-20T03:15:26.365Z,0.00
2018-03-20T03:16:26.278Z,0.00
2018-03-20T03:17:26.193Z,0.00
2018-03-20T03:18:26.106Z,0.00
2018-03-20T03:19:26.015Z,0.00
2018-03-20T03:20:25.930Z,0.00
2018-03-20T03:21:25.841Z,0.00
2018-03-20T03:22:25.754Z,0.00
2018-03-20T03:23:25.665Z,0.00
2018-03-20T03:24:25.661Z,0.00
2018-03-20T03:25:25.495Z,0.00
2018-03-20T03:26:25.402Z,0.00
2018-03-20T03:27:25.317Z,0.00
2018-03-20T03:28:25.243Z,0.00
2018-03-20T03:29:25.141Z,0.00
2018-03-20T03:30:25.055Z,0.00
2018-03-20T03:31:24.968Z,0.00
2018-03-20T03:32:24.879Z,0.00
2018-03-20T03:33:24.792Z,0.00
2018-03-20T03:34:24.711Z,0.00
2018-03-20T03:35:24.620Z,0.00
2018-03-20T03:36:24.530Z,0.00
2018-03-20T03:37:24.442Z,0.00
2018-03-20T03:38:24.354Z,0.00
2018-03-20T03:39:24.267Z,0.00
2018-03-20T03:40:24.179Z,0.00
2018-03-20T03:41:24.097Z,0.00
2018-03-20T03:42:24.009Z,0.00
2018-03-20T03:43:23.924Z,0.00
2018-03-20T03:44:23.833Z,0.00
2018-03-20T03:45:23.748Z,0.00
2018-03-20T03:46:23.655Z,0.00
2018-03-20T03:47:23.573Z,0.00
2018-03-20T03:48:23.481Z,0.00
2018-03-20T03:49:23.394Z,0.00
2018-03-20T03:50:23.308Z,0.00
2018-03-20T03:51:23.218Z,0.00
2018-03-20T03:52:23.131Z,0.00
2018-03-20T03:53:23.051Z,0.00
2018-03-20T03:54:22.959Z,0.00
2018-03-20T03:55:22.870Z,0.00
2018-03-20T03:56:22.784Z,0.00
2018-03-20T03:57:22.700Z,0.00
2018-03-20T03:58:22.620Z,0.00
2018-03-20T03:59:22.523Z,0.00
2018-03-20T04:00:22.436Z,0.00
2018-03-20T04:01:22.352Z,0.00
2018-03-20T04:02:22.259Z,0.00
2018-03-20T04:03:22.170Z,0.00
2018-03-20T04:04:22.083Z,0.00
2018-03-20T04:05:22.001Z,0.00
2018-03-20T04:06:21.912Z,0.00
2018-03-20T04:07:21.821Z,0.00
2018-03-20T04:08:21.737Z,0.00
2018-03-20T04:09:21.651Z,0.00
2018-03-20T04:10:21.562Z,0.00
2018-03-20T04:11:21.471Z,0.00
2018-03-20T04:12:21.383Z,0.00
2018-03-20T04:13:21.297Z,0.00
2018-03-20T04:14:21.209Z,0.00
2018-03-20T04:15:21.121Z,0.00
2018-03-20T04:16:21.038Z,0.00
2018-03-20T04:17:20.947Z,0.00
2018-03-20T04:18:20.859Z,0.00
2018-03-20T04:19:20.771Z,0.00
2018-03-20T04:20:20.684Z,0.00
2018-03-20T04:21:20.600Z,0.00
2018-03-20T04:22:20.518Z,0.00
2018-03-20T04:23:20.423Z,0.00
2018-03-20T04:24:20.338Z,0.00
2018-03-20T04:25:20.248Z,0.00
2018-03-20T04:26:20.161Z,0.00
2018-03-20T04:27:20.076Z,0.00
2018-03-20T04:28:19.988Z,0.00
2018-03-20T04:29:19.903Z,0.00
2018-03-20T04:30:19.826Z,0.00
2018-03-20T04:31:19.727Z,0.00
2018-03-20T04:32:19.635Z,0.00
2018-03-20T04:33:19.550Z,0.00
2018-03-20T04:34:19.465Z,0.00
2018-03-20T04:35:19.374Z,0.00
2018-03-20T04:36:19.287Z,0.00
2018-03-20T04:37:19.202Z,0.00
2018-03-20T04:38:19.112Z,0.00
2018-03-20T04:39:19.024Z,0.00
2018-03-20T04:40:18.936Z,0.00
2018-03-20T04:41:18.849Z,0.00
2018-03-20T04:42:18.766Z,0.00
2018-03-20T04:43:18.674Z,0.00
2018-03-20T04:44:18.590Z,0.00
2018-03-20T04:45:18.503Z,0.00
2018-03-20T04:46:18.414Z,0.00
2018-03-20T04:47:18.325Z,0.00
2018-03-20T04:48:18.238Z,0.00
2018-03-20T04:49:18.151Z,0.00
2018-03-20T04:50:18.063Z,0.00
2018-03-20T04:51:17.976Z,0.00
2018-03-20T04:52:17.888Z,0.00
2018-03-20T04:53:17.800Z,0.00
2018-03-20T04:54:17.714Z,0.00
2018-03-20T04:55:17.630Z,0.00
2018-03-20T04:56:17.539Z,0.00
2018-03-20T04:57:17.452Z,0.00
2018-03-20T04:58:17.366Z,0.00
2018-03-20T04:59:17.336Z,0.00
2018-03-20T05:00:17.188Z,0.00
2018-03-20T05:01:17.105Z,0.00
2018-03-20T05:02:17.014Z,0.00
2018-03-20T05:03:16.931Z,0.00
2018-03-20T05:04:16.841Z,0.00
2018-03-20T05:05:16.763Z,0.00
2018-03-20T05:06:16.682Z,0.00
2018-03-20T05:07:16.593Z,0.00
2018-03-20T05:08:16.508Z,0.00
2018-03-20T05:09:16.418Z,0.00
2018-03-20T05:10:16.327Z,0.00
2018-03-20T05:11:16.241Z,5.63
2018-03-20T05:12:16.178Z,5.63
2018-03-20T05:13:16.069Z,5.63
2018-03-20T05:14:15.978Z,5.63
2018-03-20T05:15:15.891Z,5.63
2018-03-20T05:16:15.803Z,5.63
2018-03-20T05:17:15.716Z,5.63
2018-03-20T05:18:15.628Z,5.63
2018-03-20T05:19:15.541Z,5.63
2018-03-20T05:20:15.458Z,11.25
2018-03-20T05:21:15.368Z,11.25
2018-03-20T05:22:15.286Z,11.25
2018-03-20T05:23:15.193Z,11.25
2018-03-20T05:24:15.108Z,16.88
2018-03-20T05:25:15.029Z,16.88
2018-03-20T05:26:14.929Z,16.88
2018-03-20T05:27:14.848Z,16.88
2018-03-20T05:28:14.761Z,16.88
2018-03-20T05:29:14.679Z,16.88
2018-03-20T05:30:14.599Z,16.88
2018-03-20T05:31:14.507Z,16.88
2018-03-20T05:32:14.430Z,16.88
2018-03-20T05:33:14.330Z,16.88
2018-03-20T05:34:14.243Z,16.88
2018-03-20T05:35:14.158Z,16.88
2018-03-20T05:36:14.069Z,16.88
2018-03-20T05:37:13.984Z,16.88
2018-03-20T05:38:13.896Z,16.88
2018-03-20T05:39:13.810Z,16.88
2018-03-20T05:40:13.736Z,16.88
2018-03-20T05:41:13.635Z,16.88
2018-03-20T05:42:13.544Z,16.88
2018-03-20T05:43:13.460Z,16.88
2018-03-20T05:44:13.372Z,16.88
2018-03-20T05:45:13.285Z,16.88
2018-03-20T05:46:13.196Z,16.88
2018-03-20T05:47:13.107Z,16.88
2018-03-20T05:48:13.035Z,22.50
2018-03-20T05:49:12.952Z,22.50
2018-03-20T05:50:12.859Z,22.50
2018-03-20T05:51:12.820Z,22.50
2018-03-20T05:52:12.685Z,28.13
2018-03-20T05:53:12.595Z,28.13
2018-03-20T05:54:12.508Z,33.75
2018-03-20T05:55:12.423Z,39.38
2018-03-20T05:56:12.332Z,39.38
2018-03-20T05:57:12.289Z,45.00
2018-03-20T05:58:12.158Z,50.63
2018-03-20T05:59:12.073Z,56.25
2018-03-20T06:00:11.982Z,56.25
2018-03-20T06:01:11.901Z,56.25
2018-03-20T06:02:11.812Z,50.63
2018-03-20T06:03:11.721Z,45.00
2018-03-20T06:04:11.638Z,45.00
2018-03-20T06:05:11.555Z,50.63
2018-03-20T06:06:11.485Z,50.63
2018-03-20T06:07:11.387Z,56.25
2018-03-20T06:08:11.297Z,61.88
2018-03-20T06:09:11.210Z,67.50
2018-03-20T06:10:11.126Z,73.13
2018-03-20T06:11:11.048Z,78.75
2018-03-20T06:12:10.947Z,84.38
2018-03-20T06:13:10.864Z,84.38
2018-03-20T06:14:10.771Z,90.00
2018-03-20T06:15:10.685Z,95.63
2018-03-20T06:16:10.601Z,101.25
2018-03-20T06:17:10.510Z,101.25
2018-03-20T06:18:10.428Z,112.50
2018-03-20T06:19:10.349Z,123.75
2018-03-20T06:20:10.263Z,140.63
2018-03-20T06:21:10.174Z,151.88
2018-03-20T06:22:10.087Z,157.50
2018-03-20T06:23:09.999Z,163.13
2018-03-20T06:24:09.911Z,168.75
2018-03-20T06:25:09.823Z,174.38
2018-03-20T06:26:09.735Z,174.38
2018-03-20T06:27:09.650Z,180.00
2018-03-20T06:28:09.561Z,185.63
2018-03-20T06:29:09.476Z,191.25
2018-03-20T06:30:09.399Z,191.25
2018-03-20T06:31:09.317Z,191.25
2018-03-20T06:32:09.228Z,191.25
2018-03-20T06:33:09.141Z,191.25
2018-03-20T06:34:09.050Z,196.88
2018-03-20T06:35:08.966Z,191.25
2018-03-20T06:36:08.874Z,185.63
2018-03-20T06:37:08.798Z,180.00
2018-03-20T06:38:08.712Z,174.38
2018-03-20T06:39:08.630Z,168.75
2018-03-20T06:40:08.540Z,168.75
2018-03-20T06:41:08.466Z,163.13
2018-03-20T06:42:08.367Z,163.13
2018-03-20T06:43:08.276Z,163.13
2018-03-20T06:44:08.203Z,163.13
2018-03-20T06:45:08.114Z,157.50
2018-03-20T06:46:08.027Z,163.13
2018-03-20T06:47:07.941Z,163.13
2018-03-20T06:48:07.867Z,163.13
2018-03-20T06:49:07.769Z,163.13
2018-03-20T06:50:07.688Z,163.13
2018-03-20T06:51:07.604Z,163.13
2018-03-20T06:52:07.514Z,168.75
2018-03-20T06:53:07.429Z,168.75
2018-03-20T06:54:07.340Z,174.38
2018-03-20T06:55:07.256Z,174.38
2018-03-20T06:56:07.164Z,180.00
2018-03-20T06:57:07.089Z,185.63
2018-03-20T06:58:07.021Z,185.63
2018-03-20T06:59:06.920Z,191.25
2018-03-20T07:00:06.827Z,191.25
2018-03-20T07:01:06.746Z,196.88
2018-03-20T07:02:06.653Z,196.88
2018-03-20T07:03:06.566Z,202.50
2018-03-20T07:04:06.494Z,202.50
2018-03-20T07:05:06.403Z,196.88
2018-03-20T07:06:06.316Z,191.25
2018-03-20T07:07:06.227Z,185.63
2018-03-20T07:08:06.140Z,180.00
2018-03-20T07:09:06.053Z,185.63
2018-03-20T07:10:05.980Z,191.25
2018-03-20T07:11:05.895Z,202.50
2018-03-20T07:12:05.803Z,208.13
2018-03-20T07:13:05.716Z,219.38
2018-03-20T07:14:05.629Z,219.38
2018-03-20T07:15:05.542Z,225.00
2018-03-20T07:16:05.466Z,230.63
2018-03-20T07:17:05.383Z,230.63
2018-03-20T07:18:05.292Z,225.00
2018-03-20T07:19:05.204Z,219.38
2018-03-20T07:20:05.117Z,219.38
2018-03-20T07:21:05.042Z,219.38
2018-03-20T07:22:04.954Z,219.38
2018-03-20T07:23:04.868Z,213.75
2018-03-20T07:24:04.783Z,213.75
2018-03-20T07:25:04.695Z,208.13
2018-03-20T07:26:04.620Z,208.13
2018-03-20T07:27:04.532Z,208.13
2018-03-20T07:28:04.447Z,208.13
2018-03-20T07:29:04.361Z,202.50
2018-03-20T07:30:04.272Z,196.88
2018-03-20T07:31:04.194Z,196.88
2018-03-20T07:32:04.114Z,191.25
2018-03-20T07:33:04.020Z,191.25
2018-03-20T07:34:03.931Z,191.25
2018-03-20T07:35:03.843Z,185.63
2018-03-20T07:36:03.755Z,185.63
2018-03-20T07:37:03.681Z,185.63
2018-03-20T07:38:03.598Z,185.63
2018-03-20T07:39:03.506Z,185.63
2018-03-20T07:40:03.419Z,185.63
2018-03-20T07:41:03.337Z,191.25
2018-03-20T07:42:03.257Z,191.25
2018-03-20T07:43:03.171Z,191.25
2018-03-20T07:44:03.083Z,191.25
2018-03-20T07:45:02.999Z,191.25
2018-03-20T07:46:02.908Z,185.63
2018-03-20T07:47:02.832Z,180.00
2018-03-20T07:48:02.745Z,180.00
2018-03-20T07:49:02.662Z,185.63
2018-03-20T07:50:02.571Z,180.00
2018-03-20T07:51:02.497Z,174.38
2018-03-20T07:52:02.409Z,174.38
2018-03-20T07:53:02.328Z,174.38
2018-03-20T07:54:02.233Z,174.38
2018-03-20T07:55:02.146Z,174.38
2018-03-20T07:56:02.063Z,174.38
2018-03-20T07:57:01.997Z,180.00
2018-03-20T07:58:01.897Z,180.00
2018-03-20T07:59:02.058Z,185.63
2018-03-20T08:00:01.724Z,191.25
2018-03-20T08:01:01.672Z,191.25
2018-03-20T08:02:01.559Z,196.88
2018-03-20T08:03:01.474Z,208.13
2018-03-20T08:04:01.384Z,208.13
2018-03-20T08:05:01.298Z,213.75
2018-03-20T08:06:01.228Z,225.00
2018-03-20T08:07:01.134Z,230.63
2018-03-20T08:08:01.047Z,236.25
2018-03-20T08:09:00.963Z,241.88
2018-03-20T08:10:00.884Z,241.88
2018-03-20T08:11:00.799Z,247.50
2018-03-20T08:12:00.710Z,241.88
2018-03-20T08:13:00.627Z,236.25
2018-03-20T08:14:00.548Z,225.00
2018-03-20T08:15:00.460Z,213.75
2018-03-20T08:16:00.374Z,213.75
2018-03-20T08:17:00.285Z,202.50
2018-03-20T08:18:00.215Z,202.50
2018-03-20T08:19:00.127Z,202.50
2018-03-20T08:20:00.042Z,202.50
2018-03-20T08:20:59.953Z,208.13
2018-03-20T08:21:59.866Z,202.50
2018-03-20T08:22:59.786Z,196.88
2018-03-20T08:23:59.703Z,196.88
2018-03-20T08:24:59.615Z,191.25
2018-03-20T08:25:59.529Z,185.63
2018-03-20T08:26:59.449Z,180.00
2018-03-20T08:27:59.361Z,174.38
2018-03-20T08:28:59.275Z,174.38
2018-03-20T08:29:59.200Z,174.38
2018-03-20T08:30:59.115Z,180.00
2018-03-20T08:31:59.036Z,180.00
2018-03-20T08:32:58.941Z,185.63
2018-03-20T08:33:58.850Z,191.25
2018-03-20T08:34:58.776Z,191.25
2018-03-20T08:35:58.702Z,202.50
2018-03-20T08:36:58.610Z,202.50
2018-03-20T08:37:58.513Z,202.50
2018-03-20T08:38:58.441Z,208.13
2018-03-20T08:39:58.354Z,213.75
2018-03-20T08:40:58.266Z,219.38
2018-03-20T08:41:58.179Z,225.00
2018-03-20T08:42:58.093Z,230.63
2018-03-20T08:43:58.025Z,230.63
2018-03-20T08:44:57.927Z,236.25
2018-03-20T08:45:57.843Z,236.25
2018-03-20T08:46:57.764Z,230.63
2018-03-20T08:47:57.677Z,230.63
2018-03-20T08:48:57.589Z,230.63
2018-03-20T08:49:57.510Z,230.63
2018-03-20T08:50:57.427Z,230.63
2018-03-20T08:51:57.345Z,230.63
2018-03-20T08:52:57.253Z,225.00
2018-03-20T08:53:57.169Z,225.00
2018-03-20T08:54:57.093Z,230.63
2018-03-20T08:55:57.012Z,230.63
2018-03-20T08:56:56.927Z,230.63
2018-03-20T08:57:56.830Z,230.63
2018-03-20T08:58:56.757Z,236.25
2018-03-20T08:59:56.670Z,241.88
2018-03-20T09:00:56.579Z,241.88
2018-03-20T09:01:56.503Z,247.50
2018-03-20T09:02:56.417Z,258.75
2018-03-20T09:03:56.329Z,264.38
2018-03-20T09:04:56.242Z,270.00
2018-03-20T09:05:56.166Z,281.25
2018-03-20T09:06:56.080Z,286.88
2018-03-20T09:07:56.001Z,292.50
2018-03-20T09:08:55.932Z,303.75
2018-03-20T09:09:55.834Z,315.00
2018-03-20T09:10:55.745Z,320.63
2018-03-20T09:11:55.654Z,331.88
2018-03-20T09:12:55.580Z,348.75
2018-03-20T09:13:55.493Z,360.00
2018-03-20T09:14:55.404Z,371.25
2018-03-20T09:15:55.334Z,376.88
2018-03-20T09:16:55.241Z,388.13
2018-03-20T09:17:55.213Z,405.00
2018-03-20T09:18:55.073Z,405.00
2018-03-20T09:19:54.995Z,399.38
2018-03-20T09:20:54.909Z,399.38
2018-03-20T09:21:54.832Z,393.75
2018-03-20T09:22:54.747Z,388.13
2018-03-20T09:23:54.660Z,388.13
2018-03-20T09:24:54.568Z,382.50
2018-03-20T09:25:54.493Z,376.88
2018-03-20T09:26:54.406Z,365.63
2018-03-20T09:27:54.319Z,365.63
2018-03-20T09:28:54.243Z,360.00
2018-03-20T09:29:54.208Z,354.38
2018-03-20T09:30:54.073Z,360.00
2018-03-20T09:31:53.995Z,354.38
2018-03-20T09:32:53.910Z,331.88
2018-03-20T09:33:53.823Z,315.00
2018-03-20T09:34:53.748Z,315.00
2018-03-20T09:35:53.658Z,331.88
2018-03-20T09:36:53.570Z,337.50
2018-03-20T09:37:53.500Z,348.75
2018-03-20T09:38:53.415Z,382.50
2018-03-20T09:39:53.336Z,416.25
2018-03-20T09:40:53.248Z,450.00
2018-03-20T09:41:53.158Z,450.00
2018-03-20T09:42:53.074Z,466.88
2018-03-20T09:43:52.998Z,466.88
2018-03-20T09:44:52.919Z,455.63
2018-03-20T09:45:52.820Z,466.88
2018-03-20T09:46:52.746Z,489.38
2018-03-20T09:47:52.662Z,489.38
2018-03-20T09:48:52.586Z,461.25
2018-03-20T09:49:52.500Z,455.63
2018-03-20T09:50:52.415Z,461.25
2018-03-20T09:51:52.339Z,478.13
2018-03-20T09:52:52.246Z,517.50
2018-03-20T09:53:52.158Z,495.00
2018-03-20T09:54:52.090Z,495.00
2018-03-20T09:55:52.002Z,478.13
2018-03-20T09:56:51.924Z,511.88
2018-03-20T09:57:51.840Z,489.38
2018-03-20T09:58:51.747Z,461.25
2018-03-20T09:59:51.678Z,455.63
2018-03-20T10:00:51.590Z,438.75
2018-03-20T10:01:51.505Z,438.75
2018-03-20T10:02:51.423Z,433.13
2018-03-20T10:03:51.334Z,427.50
2018-03-20T10:04:51.265Z,421.88
2018-03-20T10:05:51.174Z,427.50
2018-03-20T10:06:51.092Z,444.38
2018-03-20T10:07:51.011Z,438.75
2018-03-20T10:08:50.925Z,438.75
2018-03-20T10:09:50.857Z,438.75
2018-03-20T10:10:50.761Z,444.38
2018-03-20T10:11:50.672Z,461.25
2018-03-20T10:12:50.614Z,489.38
2018-03-20T10:13:50.512Z,500.63
2018-03-20T10:14:50.431Z,540.00
2018-03-20T10:15:50.349Z,545.63
2018-03-20T10:16:50.269Z,511.88
2018-03-20T10:17:50.187Z,511.88
2018-03-20T10:18:50.103Z,489.38
2018-03-20T10:19:50.023Z,495.00
2018-03-20T10:20:49.937Z,506.25
2018-03-20T10:21:49.851Z,523.13
2018-03-20T10:22:49.774Z,511.88
2018-03-20T10:23:49.688Z,562.50
2018-03-20T10:24:49.616Z,658.13
2018-03-20T10:25:49.534Z,720.00
2018-03-20T10:26:49.437Z,765.00
2018-03-20T10:27:49.366Z,765.00
2018-03-20T10:28:49.277Z,838.13
2018-03-20T10:29:49.205Z,849.38
2018-03-20T10:30:49.115Z,810.00
2018-03-20T10:31:49.026Z,675.00
2018-03-20T10:32:48.952Z,579.38
2018-03-20T10:33:48.878Z,579.38
2018-03-20T10:34:48.788Z,641.25
2018-03-20T10:35:48.714Z,675.00
2018-03-20T10:36:48.635Z,635.63
2018-03-20T10:37:48.544Z,506.25
2018-03-20T10:38:48.452Z,495.00
2018-03-20T10:39:48.376Z,455.63
2018-03-20T10:40:48.293Z,450.00
2018-03-20T10:41:48.214Z,348.75
2018-03-20T10:42:48.126Z,320.63
2018-03-20T10:43:48.069Z,298.13
2018-03-20T10:44:47.967Z,365.63
2018-03-20T10:45:47.890Z,331.88
2018-03-20T10:46:47.812Z,326.25
2018-03-20T10:47:47.730Z,343.13
2018-03-20T10:48:47.641Z,326.25
2018-03-20T10:49:47.570Z,315.00
2018-03-20T10:50:47.476Z,331.88
2018-03-20T10:51:47.394Z,320.63
2018-03-20T10:52:47.319Z,360.00
2018-03-20T10:53:47.227Z,337.50
2018-03-20T10:54:47.140Z,365.63
2018-03-20T10:55:47.070Z,388.13
2018-03-20T10:56:46.980Z,365.63
2018-03-20T10:57:46.903Z,388.13
2018-03-20T10:58:46.820Z,371.25
2018-03-20T10:59:46.732Z,382.50
2018-03-20T11:00:46.653Z,405.00
2018-03-20T11:01:46.571Z,376.88
2018-03-20T11:02:46.478Z,388.13
2018-03-20T11:03:46.406Z,416.25
2018-03-20T11:04:46.317Z,461.25
2018-03-20T11:05:46.231Z,472.50
2018-03-20T11:06:46.159Z,466.88
2018-03-20T11:07:46.068Z,427.50
2018-03-20T11:08:45.980Z,331.88
2018-03-20T11:09:45.906Z,326.25
2018-03-20T11:10:45.817Z,320.63
2018-03-20T11:11:45.734Z,303.75
2018-03-20T11:12:45.655Z,343.13
2018-03-20T11:13:45.567Z,371.25
2018-03-20T11:14:45.480Z,360.00
2018-03-20T11:15:45.404Z,354.38
2018-03-20T11:16:45.321Z,399.38
2018-03-20T11:17:45.232Z,410.63
2018-03-20T11:18:45.155Z,466.88
2018-03-20T11:19:45.083Z,405.00
2018-03-20T11:20:44.981Z,371.25
2018-03-20T11:21:44.908Z,343.13
2018-03-20T11:22:44.818Z,416.25
2018-03-20T11:23:44.731Z,405.00
2018-03-20T11:24:44.677Z,320.63
2018-03-20T11:25:44.572Z,320.63
2018-03-20T11:26:44.481Z,354.38
2018-03-20T11:27:44.406Z,438.75
2018-03-20T11:28:44.330Z,405.00
2018-03-20T11:29:44.235Z,393.75
2018-03-20T11:30:44.159Z,382.50
2018-03-20T11:31:44.070Z,393.75
2018-03-20T11:32:43.985Z,450.00
2018-03-20T11:33:43.919Z,371.25
2018-03-20T11:34:43.821Z,354.38
2018-03-20T11:35:43.733Z,348.75
2018-03-20T11:36:43.661Z,438.75
2018-03-20T11:37:43.574Z,410.63
2018-03-20T11:38:43.483Z,466.88
2018-03-20T11:39:43.408Z,601.88
2018-03-20T11:40:43.321Z,461.25
2018-03-20T11:41:43.234Z,489.38
2018-03-20T11:42:43.164Z,573.75
2018-03-20T11:43:43.074Z,646.88
2018-03-20T11:44:42.982Z,691.88
2018-03-20T11:45:42.910Z,613.13
2018-03-20T11:46:42.824Z,590.63
2018-03-20T11:47:42.733Z,433.13
2018-03-20T11:48:42.671Z,376.88
2018-03-20T11:49:42.573Z,337.50
2018-03-20T11:50:42.489Z,427.50
2018-03-20T11:51:42.413Z,495.00
2018-03-20T11:52:42.325Z,427.50
2018-03-20T11:53:42.251Z,337.50
2018-03-20T11:54:42.160Z,348.75
2018-03-20T11:55:42.075Z,331.88
2018-03-20T11:56:41.997Z,371.25
2018-03-20T11:57:41.915Z,281.25
2018-03-20T11:58:41.824Z,264.38
2018-03-20T11:59:41.748Z,298.13
2018-03-20T12:00:41.664Z,286.88
2018-03-20T12:01:41.584Z,292.50
2018-03-20T12:02:41.554Z,416.25
2018-03-20T12:03:41.410Z,410.63
2018-03-20T12:04:41.340Z,483.75
2018-03-20T12:05:41.248Z,438.75
2018-03-20T12:06:41.159Z,410.63
2018-03-20T12:07:41.086Z,551.25
2018-03-20T12:08:41.007Z,489.38
2018-03-20T12:09:40.915Z,466.88
2018-03-20T12:10:40.836Z,348.75
2018-03-20T12:11:40.748Z,343.13
2018-03-20T12:12:40.665Z,393.75
2018-03-20T12:13:40.589Z,376.88
2018-03-20T12:14:40.500Z,303.75
2018-03-20T12:15:41.363Z,303.75
2018-03-20T12:16:40.335Z,331.88
2018-03-20T12:17:40.253Z,382.50
2018-03-20T12:18:40.210Z,399.38
2018-03-20T12:19:40.086Z,298.13
2018-03-20T12:20:40.004Z,354.38
2018-03-20T12:21:39.924Z,326.25
2018-03-20T12:22:39.840Z,326.25
2018-03-20T12:23:39.754Z,348.75
2018-03-20T12:24:39.679Z,388.13
2018-03-20T12:25:39.588Z,433.13
2018-03-20T12:26:39.506Z,450.00
2018-03-20T12:27:39.425Z,579.38
2018-03-20T12:28:39.339Z,511.88
2018-03-20T12:29:39.250Z,483.75
2018-03-20T12:30:39.179Z,540.00
2018-03-20T12:31:39.090Z,489.38
2018-03-20T12:32:39.001Z,466.88
2018-03-20T12:33:38.931Z,388.13
2018-03-20T12:34:38.841Z,461.25
2018-03-20T12:35:38.752Z,382.50
2018-03-20T12:36:38.676Z,376.88
2018-03-20T12:37:38.589Z,590.63
2018-03-20T12:38:38.517Z,787.50
2018-03-20T12:39:38.434Z,888.75
2018-03-20T12:40:38.338Z,613.13
2018-03-20T12:41:38.269Z,461.25
2018-03-20T12:42:38.177Z,461.25
2018-03-20T12:43:38.096Z,523.13
2018-03-20T12:44:38.016Z,838.13
2018-03-20T12:45:37.928Z,624.38
2018-03-20T12:46:37.889Z,506.25
2018-03-20T12:47:37.766Z,523.13
2018-03-20T12:48:37.682Z,500.63
2018-03-20T12:49:37.604Z,388.13